sensor_id;sensor_type;location;lat;lon;timestamp;pressure;altitude;pressure_sealevel;temperature;humidity
60355;BME280;46198;51.464;-0.066;2022-09-21T00:01:41;102578.38;;;15.52;70.48
60355;BME280;46198;51.464;-0.066;2022-09-21T00:04:09;102579.41;;;15.51;72.18
60355;BME280;46198;51.464;-0.066;2022-09-21T00:06:40;102581.72;;;15.55;70.50
60355;BME280;46198;51.464;-0.066;2022-09-21T00:09:09;102575.63;;;15.52;70.90
60355;BME280;46198;51.464;-0.066;2022-09-21T00:11:37;102579.41;;;15.51;71.96
60355;BME280;46198;51.464;-0.066;2022-09-21T00:14:07;102577.72;;;15.50;71.49
60355;BME280;46198;51.464;-0.066;2022-09-21T00:16:38;102577.72;;;15.50;70.67
60355;BME280;46198;51.464;-0.066;2022-09-21T00:19:06;102576.47;;;15.53;71.84
60355;BME280;46198;51.464;-0.066;2022-09-21T00:21:35;102569.94;;;15.47;75.05
60355;BME280;46198;51.464;-0.066;2022-09-21T00:24:07;102570.97;;;15.46;72.15
60355;BME280;46198;51.464;-0.066;2022-09-21T00:26:35;102572.25;;;15.44;72.42
60355;BME280;46198;51.464;-0.066;2022-09-21T00:29:04;102578.97;;;15.41;71.77
60355;BME280;46198;51.464;-0.066;2022-09-21T00:31:33;102573.50;;;15.41;72.25
60355;BME280;46198;51.464;-0.066;2022-09-21T00:34:02;102571.81;;;15.40;70.94
60355;BME280;46198;51.464;-0.066;2022-09-21T00:36:33;102588.44;;;15.39;71.52
60355;BME280;46198;51.464;-0.066;2022-09-21T00:39:03;102583.63;;;15.34;72.38
60355;BME280;46198;51.464;-0.066;2022-09-21T00:41:33;102584.66;;;15.33;72.97
60355;BME280;46198;51.464;-0.066;2022-09-21T00:44:29;102582.97;;;15.32;70.39
60355;BME280;46198;51.464;-0.066;2022-09-21T00:47:02;102580.25;;;15.32;71.49
60355;BME280;46198;51.464;-0.066;2022-09-21T00:49:32;102583.81;;;15.26;74.56
60355;BME280;46198;51.464;-0.066;2022-09-21T00:52:03;102584.84;;;15.25;73.38
60355;BME280;46198;51.464;-0.066;2022-09-21T00:54:37;102576.66;;;15.25;72.50
60355;BME280;46198;51.464;-0.066;2022-09-21T00:57:11;102584.44;;;15.21;74.47
60355;BME280;46198;51.464;-0.066;2022-09-21T00:59:42;102580.88;;;15.21;74.72
60355;BME280;46198;51.464;-0.066;2022-09-21T01:02:12;102580.22;;;15.19;75.60
60355;BME280;46198;51.464;-0.066;2022-09-21T01:04:40;102580.44;;;15.17;74.60
60355;BME280;46198;51.464;-0.066;2022-09-21T01:07:11;102583.78;;;15.19;72.98
60355;BME280;46198;51.464;-0.066;2022-09-21T01:09:45;102581.47;;;15.16;74.22
60355;BME280;46198;51.464;-0.066;2022-09-21T01:12:29;102571.78;;;15.14;75.58
60355;BME280;46198;51.464;-0.066;2022-09-21T01:15:18;102584.44;;;15.15;73.74
60355;BME280;46198;51.464;-0.066;2022-09-21T01:17:56;102573.50;;;15.15;73.00
60355;BME280;46198;51.464;-0.066;2022-09-21T01:26:15;102575.38;;;15.07;77.50
60355;BME280;46198;51.464;-0.066;2022-09-21T01:29:12;102578.09;;;15.07;74.74
60355;BME280;46198;51.464;-0.066;2022-09-21T01:31:50;102582.94;;;15.05;74.64
60355;BME280;46198;51.464;-0.066;2022-09-21T01:34:25;102579.53;;;15.03;76.09
60355;BME280;46198;51.464;-0.066;2022-09-21T01:36:57;102586.72;;;15.04;76.91
60355;BME280;46198;51.464;-0.066;2022-09-21T01:39:26;102579.13;;;15.00;78.89
60355;BME280;46198;51.464;-0.066;2022-09-21T01:41:57;102582.28;;;15.03;75.24
60355;BME280;46198;51.464;-0.066;2022-09-21T01:44:28;102583.34;;;15.02;76.50
60355;BME280;46198;51.464;-0.066;2022-09-21T01:47:00;102579.78;;;15.02;76.41
60355;BME280;46198;51.464;-0.066;2022-09-21T01:49:33;102580.81;;;15.01;78.58
60355;BME280;46198;51.464;-0.066;2022-09-21T01:52:09;102578.28;;;14.99;79.00
60355;BME280;46198;51.464;-0.066;2022-09-21T01:54:44;102575.56;;;14.99;77.83
60355;BME280;46198;51.464;-0.066;2022-09-21T01:57:22;102573.25;;;14.96;77.52
60355;BME280;46198;51.464;-0.066;2022-09-21T01:59:55;102578.06;;;15.01;77.38
60355;BME280;46198;51.464;-0.066;2022-09-21T02:02:30;102574.50;;;15.00;78.09
60355;BME280;46198;51.464;-0.066;2022-09-21T02:05:04;102579.13;;;15.00;78.29
60355;BME280;46198;51.464;-0.066;2022-09-21T02:07:34;102576.81;;;14.97;79.42
60355;BME280;46198;51.464;-0.066;2022-09-21T02:10:06;102574.72;;;14.99;78.82
60355;BME280;46198;51.464;-0.066;2022-09-21T02:12:37;102567.34;;;14.99;75.84
60355;BME280;46198;51.464;-0.066;2022-09-21T02:15:08;102563.97;;;14.97;75.83
60355;BME280;46198;51.464;-0.066;2022-09-21T02:17:46;102577.44;;;14.99;75.95
60355;BME280;46198;51.464;-0.066;2022-09-21T02:20:19;102567.13;;;14.94;77.63
60355;BME280;46198;51.464;-0.066;2022-09-21T02:22:58;102570.91;;;14.93;76.17
60355;BME280;46198;51.464;-0.066;2022-09-21T02:25:38;102570.06;;;14.93;79.42
60355;BME280;46198;51.464;-0.066;2022-09-21T02:28:14;102573.66;;;14.93;78.23
60355;BME280;46198;51.464;-0.066;2022-09-21T02:30:52;102566.47;;;14.92;80.29
60355;BME280;46198;51.464;-0.066;2022-09-21T02:33:27;102563.13;;;14.90;78.52
60355;BME280;46198;51.464;-0.066;2022-09-21T02:36:03;102565.44;;;14.93;77.95
60355;BME280;46198;51.464;-0.066;2022-09-21T02:38:36;102561.44;;;14.89;79.35
60355;BME280;46198;51.464;-0.066;2022-09-21T02:41:11;102561.66;;;14.88;79.25
60355;BME280;46198;51.464;-0.066;2022-09-21T02:43:45;102562.47;;;14.88;78.49
60355;BME280;46198;51.464;-0.066;2022-09-21T02:46:21;102569.63;;;14.89;77.43
60355;BME280;46198;51.464;-0.066;2022-09-21T02:48:54;102567.97;;;14.88;78.03
60355;BME280;46198;51.464;-0.066;2022-09-21T02:51:27;102554.47;;;14.87;75.22
60355;BME280;46198;51.464;-0.066;2022-09-21T02:53:57;102560.78;;;14.87;77.02
60355;BME280;46198;51.464;-0.066;2022-09-21T02:56:29;102559.53;;;14.83;78.86
60355;BME280;46198;51.464;-0.066;2022-09-21T02:59:01;102559.94;;;14.80;79.58
60355;BME280;46198;51.464;-0.066;2022-09-21T03:01:32;102560.97;;;14.79;78.35
60355;BME280;46198;51.464;-0.066;2022-09-21T03:04:01;102559.94;;;14.80;76.87
60355;BME280;46198;51.464;-0.066;2022-09-21T03:06:30;102554.47;;;14.80;77.58
60355;BME280;46198;51.464;-0.066;2022-09-21T03:08:59;102553.63;;;14.79;76.64
60355;BME280;46198;51.464;-0.066;2022-09-21T03:11:27;102550.44;;;14.76;76.83
60355;BME280;46198;51.464;-0.066;2022-09-21T03:13:55;102543.09;;;14.76;77.46
60355;BME280;46198;51.464;-0.066;2022-09-21T03:16:25;102547.72;;;14.76;77.71
60355;BME280;46198;51.464;-0.066;2022-09-21T03:18:55;102543.94;;;14.77;76.56
60355;BME280;46198;51.464;-0.066;2022-09-21T03:21:24;102547.72;;;14.76;77.13
60355;BME280;46198;51.464;-0.066;2022-09-21T03:23:52;102547.09;;;14.74;77.27
60355;BME280;46198;51.464;-0.066;2022-09-21T03:26:20;102549.84;;;14.74;77.78
60355;BME280;46198;51.464;-0.066;2022-09-21T03:28:49;102556.75;;;14.70;80.73
60355;BME280;46198;51.464;-0.066;2022-09-21T03:31:21;102557.38;;;14.72;77.66
60355;BME280;46198;51.464;-0.066;2022-09-21T03:33:49;102557.38;;;14.72;77.67
60355;BME280;46198;51.464;-0.066;2022-09-21T03:36:19;102557.81;;;14.69;80.75
60355;BME280;46198;51.464;-0.066;2022-09-21T03:38:48;102551.47;;;14.68;79.33
60355;BME280;46198;51.464;-0.066;2022-09-21T03:41:16;102557.81;;;14.69;79.33
60355;BME280;46198;51.464;-0.066;2022-09-21T03:43:45;102551.47;;;14.68;78.66
60355;BME280;46198;51.464;-0.066;2022-09-21T03:46:13;102559.47;;;14.70;78.02
60355;BME280;46198;51.464;-0.066;2022-09-21T03:48:42;102554.84;;;14.70;76.78
60355;BME280;46198;51.464;-0.066;2022-09-21T03:51:13;102552.34;;;14.69;78.96
60355;BME280;46198;51.464;-0.066;2022-09-21T03:53:44;102544.31;;;14.67;77.66
60355;BME280;46198;51.464;-0.066;2022-09-21T03:56:12;102556.09;;;14.68;79.45
60355;BME280;46198;51.464;-0.066;2022-09-21T03:58:41;102552.94;;;14.71;78.97
60355;BME280;46198;51.464;-0.066;2022-09-21T04:01:09;102546.22;;;14.67;79.86
60355;BME280;46198;51.464;-0.066;2022-09-21T04:03:37;102551.69;;;14.67;80.42
60355;BME280;46198;51.464;-0.066;2022-09-21T04:06:07;102542.66;;;14.66;80.39
60355;BME280;46198;51.464;-0.066;2022-09-21T04:08:36;102551.47;;;14.68;79.41
60355;BME280;46198;51.464;-0.066;2022-09-21T04:11:09;102541.16;;;14.63;81.11
60355;BME280;46198;51.464;-0.066;2022-09-21T04:13:38;102543.91;;;14.63;81.69
60355;BME280;46198;51.464;-0.066;2022-09-21T04:16:08;102540.75;;;14.67;83.28
60355;BME280;46198;51.464;-0.066;2022-09-21T04:18:37;102539.28;;;14.71;79.28
60355;BME280;46198;51.464;-0.066;2022-09-21T04:21:05;102538.66;;;14.69;83.19
60355;BME280;46198;51.464;-0.066;2022-09-21T04:23:34;102538.84;;;14.67;83.47
60355;BME280;46198;51.464;-0.066;2022-09-21T04:26:02;102532.56;;;14.67;83.60
60355;BME280;46198;51.464;-0.066;2022-09-21T04:28:32;102530.47;;;14.69;80.98
60355;BME280;46198;51.464;-0.066;2022-09-21T04:31:00;102529.59;;;14.68;83.82
60355;BME280;46198;51.464;-0.066;2022-09-21T04:33:29;102525.00;;;14.69;81.80
60355;BME280;46198;51.464;-0.066;2022-09-21T04:35:57;102523.94;;;14.70;84.12
60355;BME280;46198;51.464;-0.066;2022-09-21T04:38:25;102528.34;;;14.71;80.84
60355;BME280;46198;51.464;-0.066;2022-09-21T04:40:54;102528.34;;;14.71;81.73
60355;BME280;46198;51.464;-0.066;2022-09-21T04:43:26;102522.69;;;14.72;82.22
60355;BME280;46198;51.464;-0.066;2022-09-21T04:45:56;102529.00;;;14.73;81.94
60355;BME280;46198;51.464;-0.066;2022-09-21T04:48:24;102526.47;;;14.71;82.48
60355;BME280;46198;51.464;-0.066;2022-09-21T04:50:53;102524.59;;;14.72;81.96
60355;BME280;46198;51.464;-0.066;2022-09-21T04:53:21;102526.47;;;14.71;83.68
60355;BME280;46198;51.464;-0.066;2022-09-21T04:55:49;102525.41;;;14.72;82.99
60355;BME280;46198;51.464;-0.066;2022-09-21T04:58:18;102527.31;;;14.72;84.61
60355;BME280;46198;51.464;-0.066;2022-09-21T05:00:50;102526.25;;;14.73;82.75
60355;BME280;46198;51.464;-0.066;2022-09-21T05:03:22;102524.59;;;14.72;81.52
60355;BME280;46198;51.464;-0.066;2022-09-21T05:05:53;102520.13;;;14.71;81.96
60355;BME280;46198;51.464;-0.066;2022-09-21T05:08:22;102521.84;;;14.72;81.04
60355;BME280;46198;51.464;-0.066;2022-09-21T05:11:05;102520.13;;;14.71;83.02
60355;BME280;46198;51.464;-0.066;2022-09-21T05:13:33;102516.78;;;14.69;83.42
60355;BME280;46198;51.464;-0.066;2022-09-21T05:16:02;102517.41;;;14.71;79.74
60355;BME280;46198;51.464;-0.066;2022-09-21T05:18:33;102523.28;;;14.68;82.87
60355;BME280;46198;51.464;-0.066;2022-09-21T05:21:03;102523.28;;;14.68;81.89
60355;BME280;46198;51.464;-0.066;2022-09-21T05:23:33;102513.59;;;14.65;82.82
60355;BME280;46198;51.464;-0.066;2022-09-21T05:26:01;102518.47;;;14.70;81.15
60355;BME280;46198;51.464;-0.066;2022-09-21T05:28:30;102512.78;;;14.65;83.42
60355;BME280;46198;51.464;-0.066;2022-09-21T05:31:12;102514.84;;;14.62;84.44
60355;BME280;46198;51.464;-0.066;2022-09-21T05:33:52;102521.63;;;14.67;81.99
60355;BME280;46198;51.464;-0.066;2022-09-21T05:36:33;102523.72;;;14.65;82.48
60355;BME280;46198;51.464;-0.066;2022-09-21T05:39:05;102523.72;;;14.65;84.73
60355;BME280;46198;51.464;-0.066;2022-09-21T05:41:34;102526.25;;;14.66;82.09
60355;BME280;46198;51.464;-0.066;2022-09-21T05:44:04;102529.16;;;14.65;83.77
60355;BME280;46198;51.464;-0.066;2022-09-21T05:46:37;102531.72;;;14.66;81.89
60355;BME280;46198;51.464;-0.066;2022-09-21T05:49:16;102536.13;;;14.67;81.97
60355;BME280;46198;51.464;-0.066;2022-09-21T05:51:58;102529.59;;;14.68;81.86
60355;BME280;46198;51.464;-0.066;2022-09-21T05:54:40;102532.97;;;14.63;83.73
60355;BME280;46198;51.464;-0.066;2022-09-21T05:57:17;102538.03;;;14.67;84.76
60355;BME280;46198;51.464;-0.066;2022-09-21T06:00:02;102539.91;;;14.66;81.10
60355;BME280;46198;51.464;-0.066;2022-09-21T06:02:49;102533.59;;;14.66;82.22
60355;BME280;46198;51.464;-0.066;2022-09-21T06:05:23;102539.06;;;14.66;81.90
60355;BME280;46198;51.464;-0.066;2022-09-21T06:07:52;102538.44;;;14.63;82.88
60355;BME280;46198;51.464;-0.066;2022-09-21T06:10:20;102533.38;;;14.60;83.58
60355;BME280;46198;51.464;-0.066;2022-09-21T06:12:50;102536.72;;;14.62;83.83
60355;BME280;46198;51.464;-0.066;2022-09-21T06:15:19;102536.72;;;14.62;84.48
60355;BME280;46198;51.464;-0.066;2022-09-21T06:17:48;102542.84;;;14.65;81.07
60355;BME280;46198;51.464;-0.066;2022-09-21T06:20:16;102536.31;;;14.66;81.84
60355;BME280;46198;51.464;-0.066;2022-09-21T06:22:46;102548.53;;;14.70;80.35
60355;BME280;46198;51.464;-0.066;2022-09-21T06:25:18;102552.34;;;14.69;82.55
60355;BME280;46198;51.464;-0.066;2022-09-21T06:27:48;102548.53;;;14.70;82.42
60355;BME280;46198;51.464;-0.066;2022-09-21T06:30:16;102554.84;;;14.70;83.32
60355;BME280;46198;51.464;-0.066;2022-09-21T06:32:45;102555.31;;;14.74;82.78
60355;BME280;46198;51.464;-0.066;2022-09-21T06:35:13;102557.81;;;14.75;82.56
60355;BME280;46198;51.464;-0.066;2022-09-21T06:37:43;102556.56;;;14.78;83.19
60355;BME280;46198;51.464;-0.066;2022-09-21T06:40:13;102552.75;;;14.79;81.94
60355;BME280;46198;51.464;-0.066;2022-09-21T06:42:42;102555.13;;;14.82;82.76
60355;BME280;46198;51.464;-0.066;2022-09-21T06:45:10;102552.38;;;14.82;82.87
60355;BME280;46198;51.464;-0.066;2022-09-21T06:47:39;102544.78;;;14.84;82.40
60355;BME280;46198;51.464;-0.066;2022-09-21T06:50:13;102551.97;;;14.85;84.37
60355;BME280;46198;51.464;-0.066;2022-09-21T06:52:44;102555.31;;;14.87;83.48
60355;BME280;46198;51.464;-0.066;2022-09-21T06:55:15;102558.69;;;14.89;83.85
60355;BME280;46198;51.464;-0.066;2022-09-21T06:57:43;102552.19;;;14.90;84.80
60355;BME280;46198;51.464;-0.066;2022-09-21T07:00:13;102556.59;;;14.91;84.74
60355;BME280;46198;51.464;-0.066;2022-09-21T07:02:45;102553.44;;;14.94;85.36
60355;BME280;46198;51.464;-0.066;2022-09-21T07:05:22;102557.03;;;14.95;82.85
60355;BME280;46198;51.464;-0.066;2022-09-21T07:07:56;102556.59;;;14.98;82.52
60355;BME280;46198;51.464;-0.066;2022-09-21T07:10:29;102556.19;;;15.01;83.06
60355;BME280;46198;51.464;-0.066;2022-09-21T07:13:01;102551.34;;;15.03;84.42
60355;BME280;46198;51.464;-0.066;2022-09-21T07:15:31;102550.94;;;15.06;83.73
60355;BME280;46198;51.464;-0.066;2022-09-21T07:18:00;102558.09;;;15.07;85.67
60355;BME280;46198;51.464;-0.066;2022-09-21T07:20:37;102555.78;;;15.11;82.27
60355;BME280;46198;51.464;-0.066;2022-09-21T07:23:09;102554.72;;;15.12;82.25
60355;BME280;46198;51.464;-0.066;2022-09-21T07:25:42;102558.75;;;15.16;82.17
60355;BME280;46198;51.464;-0.066;2022-09-21T07:28:13;102552.03;;;15.18;81.86
60355;BME280;46198;51.464;-0.066;2022-09-21T07:30:42;102557.06;;;15.21;81.53
60355;BME280;46198;51.464;-0.066;2022-09-21T07:33:11;102562.13;;;15.24;81.42
60355;BME280;46198;51.464;-0.066;2022-09-21T07:35:39;102557.28;;;15.26;82.35
60355;BME280;46198;51.464;-0.066;2022-09-21T07:38:08;102553.50;;;15.27;81.81
60355;BME280;46198;51.464;-0.066;2022-09-21T07:40:43;102558.78;;;15.29;83.98
60355;BME280;46198;51.464;-0.066;2022-09-21T07:47:47;102557.72;;;15.23;80.99
60355;BME280;46198;51.464;-0.066;2022-09-21T07:50:16;102561.28;;;15.24;81.98
60355;BME280;46198;51.464;-0.066;2022-09-21T07:52:50;102561.72;;;15.21;82.21
60355;BME280;46198;51.464;-0.066;2022-09-21T07:55:20;102555.41;;;15.20;82.88
60355;BME280;46198;51.464;-0.066;2022-09-21T07:58:16;102553.09;;;15.17;82.18
60355;BME280;46198;51.464;-0.066;2022-09-21T08:04:45;102557.69;;;15.30;81.03
60355;BME280;46198;51.464;-0.066;2022-09-21T08:07:18;102564.25;;;15.29;80.57
60355;BME280;46198;51.464;-0.066;2022-09-21T08:09:49;102565.06;;;15.36;81.37
60355;BME280;46198;51.464;-0.066;2022-09-21T08:12:43;102568.25;;;15.40;79.72
60355;BME280;46198;51.464;-0.066;2022-09-21T08:15:20;102562.16;;;15.44;81.52
60355;BME280;46198;51.464;-0.066;2022-09-21T08:18:08;102564.03;;;15.50;80.43
60355;BME280;46198;51.464;-0.066;2022-09-21T08:20:39;102561.06;;;15.52;81.12
60355;BME280;46198;51.464;-0.066;2022-09-21T08:23:08;102560.47;;;15.50;80.52
60355;BME280;46198;51.464;-0.066;2022-09-21T08:25:38;102563.22;;;15.50;80.16
60355;BME280;46198;51.464;-0.066;2022-09-21T08:28:09;102565.53;;;15.53;79.87
60355;BME280;46198;51.464;-0.066;2022-09-21T08:30:44;102561.72;;;15.61;79.85
60355;BME280;46198;51.464;-0.066;2022-09-21T08:33:12;102568.25;;;15.66;80.40
60355;BME280;46198;51.464;-0.066;2022-09-21T08:35:44;102563.22;;;15.70;80.52
60355;BME280;46198;51.464;-0.066;2022-09-21T08:38:21;102569.09;;;15.73;79.50
60355;BME280;46198;51.464;-0.066;2022-09-21T08:40:50;102557.53;;;15.78;79.82
60355;BME280;46198;51.464;-0.066;2022-09-21T08:43:29;102564.06;;;15.84;77.08
60355;BME280;46198;51.464;-0.066;2022-09-21T08:46:06;102565.94;;;15.83;77.90
60355;BME280;46198;51.464;-0.066;2022-09-21T08:48:41;102568.47;;;15.91;76.67
60355;BME280;46198;51.464;-0.066;2022-09-21T08:51:15;102563.19;;;15.90;78.04
60355;BME280;46198;51.464;-0.066;2022-09-21T08:53:51;102559.81;;;15.94;77.38
60355;BME280;46198;51.464;-0.066;2022-09-21T08:56:22;102563.41;;;16.02;77.47
60355;BME280;46198;51.464;-0.066;2022-09-21T08:59:13;102565.72;;;16.05;77.12
60355;BME280;46198;51.464;-0.066;2022-09-21T09:01:52;102569.69;;;16.09;77.44
60355;BME280;46198;51.464;-0.066;2022-09-21T09:04:34;102571.78;;;16.13;78.23
60355;BME280;46198;51.464;-0.066;2022-09-21T09:07:14;102569.69;;;16.15;77.22
60355;BME280;46198;51.464;-0.066;2022-09-21T09:10:12;102568.81;;;16.22;77.09
60355;BME280;46198;51.464;-0.066;2022-09-21T09:12:56;102567.31;;;16.26;77.73
60355;BME280;46198;51.464;-0.066;2022-09-21T09:15:40;102573.88;;;16.31;76.23
60355;BME280;46198;51.464;-0.066;2022-09-21T09:18:17;102572.78;;;16.32;78.33
60355;BME280;46198;51.464;-0.066;2022-09-21T09:20:56;102576.38;;;16.39;75.99
60355;BME280;46198;51.464;-0.066;2022-09-21T09:23:27;102573.63;;;16.39;77.43
60355;BME280;46198;51.464;-0.066;2022-09-21T09:25:57;102569.19;;;16.38;73.95
60355;BME280;46198;51.464;-0.066;2022-09-21T09:28:32;102577.84;;;16.42;76.07
60355;BME280;46198;51.464;-0.066;2022-09-21T09:31:10;102575.88;;;16.49;74.35
60355;BME280;46198;51.464;-0.066;2022-09-21T09:33:47;102577.34;;;16.52;73.21
60355;BME280;46198;51.464;-0.066;2022-09-21T09:36:19;102581.38;;;16.56;72.59
60355;BME280;46198;51.464;-0.066;2022-09-21T09:39:12;102580.94;;;16.59;73.74
60355;BME280;46198;51.464;-0.066;2022-09-21T09:42:21;102580.94;;;16.59;74.19
60355;BME280;46198;51.464;-0.066;2022-09-21T09:45:17;102575.22;;;16.60;73.14
60355;BME280;46198;51.464;-0.066;2022-09-21T09:48:03;102578.97;;;16.66;73.94
60355;BME280;46198;51.464;-0.066;2022-09-21T09:50:39;102583.63;;;16.72;73.65
60355;BME280;46198;51.464;-0.066;2022-09-21T09:53:11;102584.03;;;16.69;70.93
60355;BME280;46198;51.464;-0.066;2022-09-21T09:55:44;102575.16;;;16.74;71.77
60355;BME280;46198;51.464;-0.066;2022-09-21T09:58:17;102581.09;;;16.77;72.57
60355;BME280;46198;51.464;-0.066;2022-09-21T10:00:49;102580.22;;;16.77;73.59
60355;BME280;46198;51.464;-0.066;2022-09-21T10:03:20;102578.34;;;16.77;72.18
60355;BME280;46198;51.464;-0.066;2022-09-21T10:05:53;102577.03;;;16.87;72.27
60355;BME280;46198;51.464;-0.066;2022-09-21T10:08:44;102575.34;;;16.86;71.01
60355;BME280;46198;51.464;-0.066;2022-09-21T10:11:14;102577.22;;;16.92;70.24
60355;BME280;46198;51.464;-0.066;2022-09-21T10:13:45;102576.13;;;16.99;69.35
60355;BME280;46198;51.464;-0.066;2022-09-21T10:16:18;102573.41;;;16.93;68.05
60355;BME280;46198;51.464;-0.066;2022-09-21T10:18:49;102563.50;;;16.92;68.18
60355;BME280;46198;51.464;-0.066;2022-09-21T10:21:21;102564.78;;;16.89;68.53
60355;BME280;46198;51.464;-0.066;2022-09-21T10:23:52;102570.19;;;17.02;68.89
60355;BME280;46198;51.464;-0.066;2022-09-21T10:26:29;102564.63;;;17.09;68.89
60355;BME280;46198;51.464;-0.066;2022-09-21T10:28:59;102568.41;;;17.15;69.65
60355;BME280;46198;51.464;-0.066;2022-09-21T10:31:29;102569.59;;;17.25;67.15
60355;BME280;46198;51.464;-0.066;2022-09-21T10:34:06;102566.66;;;17.20;67.63
60355;BME280;46198;51.464;-0.066;2022-09-21T10:36:41;102558.59;;;17.25;67.33
60355;BME280;46198;51.464;-0.066;2022-09-21T10:39:24;102565.56;;;17.28;67.77
60355;BME280;46198;51.464;-0.066;2022-09-21T10:41:56;102556.94;;;17.24;63.13
60355;BME280;46198;51.464;-0.066;2022-09-21T10:44:32;102562.44;;;17.24;64.17
60355;BME280;46198;51.464;-0.066;2022-09-21T10:47:11;102563.72;;;17.22;64.11
60355;BME280;46198;51.464;-0.066;2022-09-21T10:49:45;102556.50;;;17.27;63.15
60355;BME280;46198;51.464;-0.066;2022-09-21T10:52:20;102554.97;;;17.32;64.00
60355;BME280;46198;51.464;-0.066;2022-09-21T10:54:51;102555.72;;;17.45;62.88
60355;BME280;46198;51.464;-0.066;2022-09-21T10:57:22;102557.22;;;17.41;61.63
60355;BME280;46198;51.464;-0.066;2022-09-21T10:59:51;102553.66;;;17.41;63.06
60355;BME280;46198;51.464;-0.066;2022-09-21T11:02:33;102555.50;;;17.47;64.32
60355;BME280;46198;51.464;-0.066;2022-09-21T11:05:08;102556.72;;;17.51;61.45
60355;BME280;46198;51.464;-0.066;2022-09-21T11:07:44;102547.59;;;17.57;61.61
60355;BME280;46198;51.464;-0.066;2022-09-21T11:10:20;102556.22;;;17.61;61.79
60355;BME280;46198;51.464;-0.066;2022-09-21T11:13:08;102549.88;;;17.60;60.16
60355;BME280;46198;51.464;-0.066;2022-09-21T11:15:49;102540.34;;;17.63;62.81
60355;BME280;46198;51.464;-0.066;2022-09-21T11:18:21;102550.66;;;17.67;63.38
60355;BME280;46198;51.464;-0.066;2022-09-21T11:20:56;102542.72;;;17.78;60.71
60355;BME280;46198;51.464;-0.066;2022-09-21T11:23:45;102534.22;;;17.86;59.25
60355;BME280;46198;51.464;-0.066;2022-09-21T11:26:18;102536.25;;;17.97;60.59
60355;BME280;46198;51.464;-0.066;2022-09-21T11:28:52;102542.50;;;18.04;60.65
60355;BME280;46198;51.464;-0.066;2022-09-21T11:31:43;102544.47;;;18.15;59.27
60355;BME280;46198;51.464;-0.066;2022-09-21T11:34:30;102543.28;;;18.30;60.37
60355;BME280;46198;51.464;-0.066;2022-09-21T11:37:09;102531.19;;;18.49;57.36
60355;BME280;46198;51.464;-0.066;2022-09-21T11:39:53;102523.66;;;18.56;57.35
60355;BME280;46198;51.464;-0.066;2022-09-21T11:42:38;102523.81;;;18.61;55.76
60355;BME280;46198;51.464;-0.066;2022-09-21T11:45:21;102528.31;;;18.74;55.42
60355;BME280;46198;51.464;-0.066;2022-09-21T11:48:03;102520.16;;;18.68;55.25
60355;BME280;46198;51.464;-0.066;2022-09-21T11:50:37;102520.59;;;18.65;54.46
60355;BME280;46198;51.464;-0.066;2022-09-21T11:53:22;102520.16;;;18.68;55.38
60355;BME280;46198;51.464;-0.066;2022-09-21T11:56:04;102515.19;;;18.76;51.73
60355;BME280;46198;51.464;-0.066;2022-09-21T11:58:40;102519.66;;;18.89;52.91
60355;BME280;46198;51.464;-0.066;2022-09-21T12:01:29;102512.88;;;19.03;53.35
60355;BME280;46198;51.464;-0.066;2022-09-21T12:04:18;102509.91;;;19.17;54.07
60355;BME280;46198;51.464;-0.066;2022-09-21T12:07:00;102507.97;;;19.06;53.39
60355;BME280;46198;51.464;-0.066;2022-09-21T12:10:06;102502.19;;;18.95;52.92
60355;BME280;46198;51.464;-0.066;2022-09-21T12:12:47;102502.81;;;19.09;51.87
60355;BME280;46198;51.464;-0.066;2022-09-21T12:15:21;102500.44;;;19.13;51.57
60355;BME280;46198;51.464;-0.066;2022-09-21T12:17:57;102499.13;;;19.15;54.15
60355;BME280;46198;51.464;-0.066;2022-09-21T12:20:36;102496.97;;;19.06;51.82
60355;BME280;46198;51.464;-0.066;2022-09-21T12:23:13;102500.09;;;19.21;51.59
60355;BME280;46198;51.464;-0.066;2022-09-21T12:25:47;102493.38;;;19.17;52.48
60355;BME280;46198;51.464;-0.066;2022-09-21T12:28:23;102486.69;;;19.24;51.04
60355;BME280;46198;51.464;-0.066;2022-09-21T12:30:58;102497.59;;;19.31;51.62
60355;BME280;46198;51.464;-0.066;2022-09-21T12:33:32;102488.09;;;19.27;49.82
60355;BME280;46198;51.464;-0.066;2022-09-21T12:36:07;102473.75;;;19.48;50.35
60355;BME280;46198;51.464;-0.066;2022-09-21T12:38:42;102484.91;;;19.54;49.97
60355;BME280;46198;51.464;-0.066;2022-09-21T12:41:16;102467.91;;;19.68;50.12
60355;BME280;46198;51.464;-0.066;2022-09-21T12:43:50;102471.00;;;19.84;51.33
60355;BME280;46198;51.464;-0.066;2022-09-21T12:46:22;102466.22;;;19.67;48.18
60355;BME280;46198;51.464;-0.066;2022-09-21T12:48:52;102468.38;;;19.65;47.09
60355;BME280;46198;51.464;-0.066;2022-09-21T12:51:25;102463.84;;;19.71;47.43
60355;BME280;46198;51.464;-0.066;2022-09-21T12:53:59;102458.78;;;19.56;47.32
60355;BME280;46198;51.464;-0.066;2022-09-21T12:56:39;102458.06;;;19.61;48.47
60355;BME280;46198;51.464;-0.066;2022-09-21T12:59:21;102457.59;;;19.64;49.85
60355;BME280;46198;51.464;-0.066;2022-09-21T13:01:58;102453.13;;;19.86;49.88
60355;BME280;46198;51.464;-0.066;2022-09-21T13:04:40;102452.22;;;19.69;47.04
60355;BME280;46198;51.464;-0.066;2022-09-21T13:07:38;102448.50;;;19.75;48.94
60355;BME280;46198;51.464;-0.066;2022-09-21T13:10:18;102442.50;;;19.66;48.03
60355;BME280;46198;51.464;-0.066;2022-09-21T13:12:52;102441.91;;;19.53;47.28
60355;BME280;46198;51.464;-0.066;2022-09-21T13:15:25;102440.94;;;19.59;47.19
60355;BME280;46198;51.464;-0.066;2022-09-21T13:17:59;102438.78;;;19.61;47.22
60355;BME280;46198;51.464;-0.066;2022-09-21T13:20:33;102436.84;;;19.73;48.20
60355;BME280;46198;51.464;-0.066;2022-09-21T13:23:02;102430.88;;;19.76;50.20
60355;BME280;46198;51.464;-0.066;2022-09-21T13:25:32;102425.72;;;19.80;49.00
60355;BME280;46198;51.464;-0.066;2022-09-21T13:28:05;102427.25;;;19.87;47.36
60355;BME280;46198;51.464;-0.066;2022-09-21T13:30:48;102430.41;;;19.79;48.50